To NAV CANADA Home Page Login to a new session Search on AWWS site Feedback and Comments Disclaimer Vers la page française équivalente Tips FAQ What's new on the site To the Forecasts and Observations / NOTAM section To "File a Flight Plan" website Publications and other links Update of the User's profile FIC Telephone Numbers My Weather Data Folder Route Weather Data Regional Weather Data Local Weather Data To the Forecasts and Observations / NOTAM section
Request Generated 07/07/2015 at 13:24:46 UTC . Weather information available at that time is displayed.

METAR/TAF

PANGNIRTUNG/NU    (show WxCam)

METAR CYXP 071300Z 09018G32KT 15SM -SHRA BKN070 OVC100 12/03 A2992
RMK AC6AS2 SLP132=
SPECI CYXP 071255Z 10022G32KT 15SM -SHRA BKN070 OVC100 12/03 A2991
RMK AC5AS3 SLP131=
METAR CYXP 071200Z 10019G32KT 15SM FEW045 OVC100 12/01 A2992 RMK
CF1AS7 AC ASOCTD SLP134=
METAR CYXP 071100Z 09023G30KT 15SM FEW040 OVC100 11/01 A2993 RMK
CF1AS7 11.8/9.8/0.0 PRESFR SLP137=

TAF CYXP 071238Z 0713/0722 09022G32KT P6SM SCT040 OVC100
BECMG 0715/0717 09025G40KT
FM071900 09030G45KT P6SM SCT040 OVC080 TEMPO 0719/0722 P6SM -RA
OVC040
RMK NXT FCST BY 071900Z=
Your time UTC time
Weather data provided by Environment Canada and NAV CANADA